createdAt,value
2024-03-07T00:02:08.363Z,11.10
2024-03-07T00:07:10.988Z,12.10
2024-03-07T00:12:13.608Z,10.40
2024-03-07T00:17:16.194Z,11.10
2024-03-07T00:22:19.550Z,11.30
2024-03-07T00:27:22.132Z,10.70
2024-03-07T00:32:24.709Z,11.70
2024-03-07T00:37:27.212Z,12.10
2024-03-07T00:42:30.164Z,11.30
2024-03-07T00:47:33.355Z,10.70
2024-03-07T00:52:36.012Z,11.30
2024-03-07T00:57:39.235Z,11.80
2024-03-07T01:02:45.395Z,11.90
2024-03-07T01:07:48.355Z,11.90
2024-03-07T01:12:51.171Z,11.20
2024-03-07T01:17:53.873Z,11.70
2024-03-07T01:22:57.856Z,12.70
2024-03-07T01:28:01.817Z,12.40
2024-03-07T01:33:04.816Z,12.00
2024-03-07T01:38:09.524Z,11.80
2024-03-07T01:43:12.360Z,13.30
2024-03-07T01:48:22.579Z,11.30
2024-03-07T01:53:26.878Z,11.20
2024-03-07T01:58:31.298Z,10.30
2024-03-07T02:03:34.121Z,12.80
2024-03-07T02:08:36.788Z,12.80
2024-03-07T02:13:39.312Z,10.80
2024-03-07T02:18:41.812Z,11.30
2024-03-07T02:23:44.830Z,11.30
2024-03-07T02:28:47.338Z,11.30
2024-03-07T02:33:49.849Z,10.80
2024-03-07T02:38:52.402Z,11.60
2024-03-07T02:43:54.930Z,11.70
2024-03-07T02:48:57.356Z,11.10
2024-03-07T02:53:59.956Z,9.30
2024-03-07T02:59:04.910Z,10.20
2024-03-07T03:04:07.672Z,10.00
2024-03-07T03:09:14.179Z,9.20
2024-03-07T03:14:16.678Z,8.90
2024-03-07T03:19:19.260Z,9.60
2024-03-07T03:24:22.133Z,9.90
2024-03-07T03:29:24.635Z,11.10
2024-03-07T03:34:27.774Z,12.40
2024-03-07T03:39:30.239Z,11.80
2024-03-07T03:44:32.727Z,11.80
2024-03-07T03:49:35.200Z,11.80
2024-03-07T03:54:37.647Z,12.60
2024-03-07T03:59:45.739Z,11.80
2024-03-07T04:04:49.074Z,11.80
2024-03-07T04:09:51.633Z,10.90
2024-03-07T04:14:55.935Z,10.50
2024-03-07T04:19:59.534Z,10.20
2024-03-07T04:25:05.783Z,9.90
2024-03-07T04:30:12.115Z,9.00
2024-03-07T04:35:17.139Z,8.40
2024-03-07T04:40:23.029Z,9.00
2024-03-07T04:45:25.609Z,11.00
2024-03-07T04:50:28.178Z,10.70
2024-03-07T04:55:31.354Z,10.50
2024-03-07T05:00:33.791Z,11.00
2024-03-07T05:05:36.340Z,11.40
2024-03-07T05:10:38.901Z,11.60
2024-03-07T05:15:41.417Z,11.30
2024-03-07T05:20:43.869Z,11.80
2024-03-07T05:25:47.234Z,10.80
2024-03-07T05:30:50.435Z,11.20
2024-03-07T05:36:03.873Z,11.90
2024-03-07T05:41:06.446Z,13.20
2024-03-07T05:46:10.969Z,11.80
2024-03-07T05:51:13.669Z,13.80
2024-03-07T05:56:17.419Z,14.20
2024-03-07T06:01:19.868Z,14.00
2024-03-07T06:06:22.732Z,12.80
2024-03-07T06:11:26.402Z,13.00
2024-03-07T06:16:33.707Z,11.70
2024-03-07T06:21:38.154Z,11.30
2024-03-07T06:27:00.613Z,12.60
2024-03-07T06:32:03.458Z,11.00
2024-03-07T06:37:06.524Z,13.50
2024-03-07T06:42:08.996Z,15.50
2024-03-07T06:47:11.742Z,15.30
2024-03-07T06:52:14.286Z,17.40
2024-03-07T06:57:18.391Z,19.10
2024-03-07T07:02:20.924Z,13.90
2024-03-07T07:07:23.465Z,14.20
2024-03-07T07:12:25.976Z,13.20
2024-03-07T07:17:30.069Z,12.70
2024-03-07T07:22:36.018Z,12.60
2024-03-07T07:27:38.671Z,13.40
2024-03-07T07:32:42.471Z,12.20
2024-03-07T07:37:49.142Z,13.30
2024-03-07T07:42:53.266Z,13.30
2024-03-07T07:47:56.400Z,11.90
2024-03-07T07:52:59.990Z,12.30
2024-03-07T07:58:05.271Z,13.10
2024-03-07T08:03:07.930Z,13.60
2024-03-07T08:08:18.017Z,12.70
2024-03-07T08:13:21.194Z,15.80
2024-03-07T08:18:24.295Z,14.10
2024-03-07T08:23:27.991Z,12.00
2024-03-07T08:28:31.253Z,11.70
2024-03-07T08:33:40.643Z,10.60
2024-03-07T08:38:44.615Z,10.00
2024-03-07T08:43:47.065Z,10.40
2024-03-07T08:48:49.956Z,10.30
2024-03-07T08:53:52.452Z,9.40
2024-03-07T08:58:54.977Z,8.50
2024-03-07T09:04:00.259Z,8.30
2024-03-07T09:09:03.588Z,8.20
2024-03-07T09:14:10.690Z,7.10
2024-03-07T09:19:14.945Z,8.20
2024-03-07T09:24:17.521Z,7.80
2024-03-07T09:29:20.541Z,8.10
2024-03-07T09:34:23.032Z,7.80
2024-03-07T09:39:25.613Z,7.30
2024-03-07T09:44:29.419Z,7.70
2024-03-07T09:49:34.746Z,6.70
2024-03-07T09:54:37.919Z,6.70
2024-03-07T09:59:45.469Z,6.50
2024-03-07T10:04:55.838Z,6.60
2024-03-07T10:10:00.407Z,6.50
2024-03-07T10:15:04.367Z,7.00
2024-03-07T10:20:10.808Z,6.00
2024-03-07T10:25:13.388Z,6.70
2024-03-07T10:30:21.582Z,5.90
2024-03-07T10:35:27.999Z,4.10
2024-03-07T10:40:31.184Z,4.90
2024-03-07T10:45:36.658Z,5.30
2024-03-07T10:51:07.948Z,5.30
2024-03-07T10:56:32.807Z,5.30
2024-03-07T11:01:44.416Z,4.00
2024-03-07T11:06:46.865Z,3.70
2024-03-07T11:11:50.133Z,4.10
2024-03-07T11:16:53.021Z,4.00
2024-03-07T11:21:57.266Z,3.90
2024-03-07T11:27:03.752Z,4.00
2024-03-07T11:32:07.761Z,4.40
2024-03-07T11:37:26.326Z,4.30
2024-03-07T11:42:34.145Z,4.50
2024-03-07T11:47:39.876Z,4.80
2024-03-07T11:52:45.168Z,5.10
2024-03-07T11:57:48.608Z,4.70
2024-03-07T12:02:51.093Z,5.00
2024-03-07T12:07:54.839Z,6.20
2024-03-07T12:12:57.647Z,5.30
2024-03-07T12:18:04.401Z,4.50
2024-03-07T12:23:08.967Z,4.70
2024-03-07T12:28:18.746Z,3.80
2024-03-07T12:33:26.158Z,3.90
2024-03-07T12:38:36.735Z,3.80
2024-03-07T12:43:39.548Z,3.30
2024-03-07T12:48:42.451Z,3.30
2024-03-07T12:53:45.326Z,4.00
2024-03-07T12:58:50.166Z,3.10
2024-03-07T13:03:52.624Z,2.90
2024-03-07T13:08:55.147Z,3.20
2024-03-07T13:13:57.908Z,2.80
2024-03-07T13:19:00.575Z,3.10
2024-03-07T13:24:03.467Z,2.90
2024-03-07T13:29:06.112Z,3.00
2024-03-07T13:34:13.981Z,3.00
2024-03-07T13:39:16.994Z,2.90
2024-03-07T13:44:20.543Z,3.20
2024-03-07T13:49:24.814Z,3.30
2024-03-07T13:54:33.459Z,3.00
2024-03-07T14:00:15.448Z,3.00
2024-03-07T14:05:41.392Z,3.10
2024-03-07T14:10:57.254Z,3.40
2024-03-07T14:16:21.710Z,2.90
2024-03-07T14:21:50.951Z,3.60
2024-03-07T14:27:25.710Z,3.20
2024-03-07T14:32:28.212Z,3.60
2024-03-07T14:37:39.078Z,3.40
2024-03-07T14:42:46.252Z,3.80
2024-03-07T14:47:53.350Z,4.00
2024-03-07T14:52:55.910Z,3.20
2024-03-07T14:57:59.858Z,3.90
2024-03-07T15:03:03.349Z,4.60
2024-03-07T15:08:06.242Z,4.00
2024-03-07T15:13:11.178Z,5.90
2024-03-07T15:18:13.891Z,6.90
2024-03-07T15:23:16.474Z,4.70
2024-03-07T15:28:18.974Z,3.80
2024-03-07T15:33:23.706Z,4.10
2024-03-07T15:38:26.988Z,4.30
2024-03-07T15:43:29.477Z,3.60
2024-03-07T15:48:32.276Z,3.50
2024-03-07T15:53:36.726Z,4.80
2024-03-07T15:58:39.446Z,4.30
2024-03-07T16:03:43.490Z,4.00
2024-03-07T16:08:46.434Z,3.80
2024-03-07T16:13:48.918Z,3.90
2024-03-07T16:18:53.162Z,4.00
2024-03-07T16:23:57.455Z,4.40
2024-03-07T16:29:00.007Z,5.00
2024-03-07T16:34:03.688Z,4.70
2024-03-07T16:39:12.868Z,4.90
2024-03-07T16:44:15.422Z,5.20
2024-03-07T16:49:18.050Z,6.70
2024-03-07T16:54:20.575Z,7.70
2024-03-07T16:59:24.103Z,7.20
2024-03-07T17:04:27.635Z,12.20
2024-03-07T17:09:30.766Z,11.70
2024-03-07T17:14:36.024Z,11.80
2024-03-07T17:19:39.185Z,13.90
2024-03-07T17:24:42.466Z,17.80
2024-03-07T17:29:47.379Z,18.40
2024-03-07T17:34:49.926Z,20.30
2024-03-07T17:39:54.796Z,17.10
2024-03-07T17:44:57.306Z,17.50
2024-03-07T17:50:03.981Z,24.10
2024-03-07T17:55:09.602Z,32.00
2024-03-07T18:00:27.425Z,26.40
2024-03-07T18:05:30.676Z,26.30
2024-03-07T18:10:36.910Z,24.60
2024-03-07T18:15:40.520Z,23.70
2024-03-07T18:20:45.752Z,24.10
2024-03-07T18:25:50.832Z,25.70
2024-03-07T18:30:54.191Z,24.50
2024-03-07T18:35:57.218Z,22.60
2024-03-07T18:40:59.748Z,21.50
2024-03-07T18:46:04.265Z,20.70
2024-03-07T18:51:06.960Z,19.60
2024-03-07T18:56:12.516Z,21.00
2024-03-07T19:01:15.315Z,20.10
2024-03-07T19:06:17.871Z,24.10
2024-03-07T19:11:20.637Z,30.30
2024-03-07T19:16:23.097Z,25.80
2024-03-07T19:21:26.062Z,21.00
2024-03-07T19:26:30.082Z,14.60
2024-03-07T19:31:35.285Z,11.20
2024-03-07T19:36:39.983Z,7.80
2024-03-07T19:41:58.635Z,6.90
2024-03-07T19:47:08.607Z,5.10
2024-03-07T19:52:11.630Z,4.90
2024-03-07T19:57:14.315Z,11.60
2024-03-07T20:02:16.798Z,8.30
2024-03-07T20:07:19.246Z,9.60
2024-03-07T20:12:21.798Z,13.00
2024-03-07T20:17:31.414Z,15.60
2024-03-07T20:22:34.511Z,14.70
2024-03-07T20:27:36.967Z,14.50
2024-03-07T20:32:39.525Z,12.00
2024-03-07T20:37:42.041Z,11.60
2024-03-07T20:42:49.085Z,11.30
2024-03-07T20:47:52.081Z,14.50
2024-03-07T20:52:54.956Z,14.20
2024-03-07T20:57:59.300Z,14.60
2024-03-07T21:03:05.093Z,11.00
2024-03-07T21:08:13.175Z,9.10
2024-03-07T21:13:17.933Z,11.20
2024-03-07T21:18:21.153Z,30.20
2024-03-07T21:23:25.426Z,17.50
2024-03-07T21:28:28.498Z,13.20
2024-03-07T21:33:32.416Z,15.10
2024-03-07T21:38:35.997Z,14.60
2024-03-07T21:43:38.531Z,13.50
2024-03-07T21:48:42.387Z,12.80
2024-03-07T21:53:54.414Z,10.50
2024-03-07T21:58:59.000Z,10.70
2024-03-07T22:04:01.462Z,10.40
2024-03-07T22:09:11.255Z,10.30
2024-03-07T22:14:17.180Z,10.80
2024-03-07T22:19:19.900Z,12.90
2024-03-07T22:24:22.390Z,11.60
2024-03-07T22:29:25.388Z,13.60
2024-03-07T22:34:30.133Z,13.20
2024-03-07T22:39:33.247Z,13.70
2024-03-07T22:44:35.889Z,13.40
2024-03-07T22:49:41.235Z,16.30
2024-03-07T22:54:44.435Z,16.50
2024-03-07T22:59:47.665Z,19.60
2024-03-07T23:04:50.241Z,17.20
2024-03-07T23:09:53.822Z,18.70
2024-03-07T23:14:56.595Z,17.90
2024-03-07T23:19:59.125Z,16.70
2024-03-07T23:25:03.139Z,16.80
2024-03-07T23:30:06.852Z,17.40
2024-03-07T23:35:09.631Z,16.70
2024-03-07T23:40:15.578Z,16.60
2024-03-07T23:45:18.265Z,16.50
2024-03-07T23:50:21.098Z,15.30
2024-03-07T23:55:24.409Z,16.80
